createdAt,value
2017-10-13T00:02:17.223Z,10.88
2017-10-13T00:04:44.787Z,10.86
2017-10-13T00:07:12.369Z,10.87
2017-10-13T00:09:39.941Z,10.85
2017-10-13T00:12:07.517Z,10.86
2017-10-13T00:14:35.106Z,10.85
2017-10-13T00:17:02.696Z,10.82
2017-10-13T00:19:30.935Z,10.80
2017-10-13T00:21:58.660Z,10.80
2017-10-13T00:24:26.241Z,10.79
2017-10-13T00:26:54.222Z,10.76
2017-10-13T00:29:21.814Z,10.77
2017-10-13T00:31:49.385Z,10.75
2017-10-13T00:34:17.363Z,10.72
2017-10-13T00:36:44.937Z,10.71
2017-10-13T00:39:12.570Z,10.73
2017-10-13T00:41:40.154Z,10.73
2017-10-13T00:44:07.894Z,10.68
2017-10-13T00:46:35.488Z,10.63
2017-10-13T00:49:03.055Z,10.57
2017-10-13T00:51:30.954Z,10.52
2017-10-13T00:53:58.516Z,10.47
2017-10-13T00:56:26.085Z,10.42
2017-10-13T00:58:53.679Z,10.40
2017-10-13T01:01:21.232Z,10.37
2017-10-13T01:03:49.152Z,10.36
2017-10-13T01:06:16.737Z,10.35
2017-10-13T01:08:44.323Z,10.33
2017-10-13T01:11:11.887Z,10.32
2017-10-13T01:13:39.460Z,10.32
2017-10-13T01:16:07.060Z,10.32
2017-10-13T01:18:34.625Z,10.30
2017-10-13T01:21:02.686Z,10.29
2017-10-13T01:23:30.239Z,10.30
2017-10-13T01:25:58.128Z,10.29
2017-10-13T01:28:25.773Z,10.27
2017-10-13T01:30:54.726Z,10.25
2017-10-13T01:33:22.454Z,10.24
2017-10-13T01:35:50.404Z,10.21
2017-10-13T01:38:18.006Z,10.18
2017-10-13T01:40:45.568Z,10.17
2017-10-13T01:43:14.876Z,10.14
2017-10-13T01:45:43.074Z,10.12
2017-10-13T01:48:10.629Z,10.09
2017-10-13T01:50:38.236Z,10.06
2017-10-13T01:53:05.787Z,10.03
2017-10-13T01:55:33.662Z,9.99
2017-10-13T01:58:01.214Z,9.98
2017-10-13T02:00:29.020Z,9.96
2017-10-13T02:02:57.211Z,9.97
2017-10-13T02:05:24.778Z,9.94
2017-10-13T02:07:52.371Z,9.93
2017-10-13T02:10:20.741Z,9.90
2017-10-13T02:12:48.762Z,9.86
2017-10-13T02:15:16.530Z,9.84
2017-10-13T02:17:44.123Z,9.84
2017-10-13T02:20:11.707Z,9.83
2017-10-13T02:22:39.276Z,9.81
2017-10-13T02:25:07.249Z,9.78
2017-10-13T02:27:34.816Z,9.75
2017-10-13T02:30:02.797Z,9.73
2017-10-13T02:32:30.416Z,9.73
2017-10-13T02:34:57.965Z,9.69
2017-10-13T02:37:25.558Z,9.65
2017-10-13T02:39:53.197Z,9.61
2017-10-13T02:42:21.213Z,9.57
2017-10-13T02:44:48.789Z,9.57
2017-10-13T02:47:16.338Z,9.56
2017-10-13T02:49:44.171Z,9.56
2017-10-13T02:52:11.734Z,9.56
2017-10-13T02:54:39.318Z,9.54
2017-10-13T02:57:07.053Z,9.54
2017-10-13T02:59:35.824Z,9.49
2017-10-13T03:02:03.404Z,9.46
2017-10-13T03:04:30.956Z,9.44
2017-10-13T03:06:58.570Z,9.43
2017-10-13T03:09:26.517Z,9.43
2017-10-13T03:11:54.119Z,9.43
2017-10-13T03:14:21.761Z,9.43
2017-10-13T03:16:49.350Z,9.43
2017-10-13T03:19:17.223Z,9.42
2017-10-13T03:21:44.794Z,9.40
2017-10-13T03:24:12.376Z,9.37
2017-10-13T03:26:40.309Z,9.35
2017-10-13T03:29:07.947Z,9.32
2017-10-13T03:31:35.519Z,9.27
2017-10-13T03:34:03.111Z,9.25
2017-10-13T03:36:30.673Z,9.26
2017-10-13T03:38:58.371Z,9.26
2017-10-13T03:41:25.937Z,9.25
2017-10-13T03:43:53.663Z,9.26
2017-10-13T03:46:21.456Z,9.27
2017-10-13T03:48:49.025Z,9.29
2017-10-13T03:51:16.607Z,9.27
2017-10-13T03:53:44.159Z,9.27
2017-10-13T03:56:11.741Z,9.27
2017-10-13T03:58:39.541Z,9.26
2017-10-13T04:01:07.440Z,9.24
2017-10-13T04:03:34.989Z,9.22
2017-10-13T04:06:02.555Z,9.22
2017-10-13T04:08:30.129Z,9.18
2017-10-13T04:10:57.679Z,9.16
2017-10-13T04:13:25.252Z,9.12
2017-10-13T04:15:52.834Z,9.07
2017-10-13T04:18:20.402Z,9.03
2017-10-13T04:20:48.014Z,8.98
2017-10-13T04:23:15.599Z,8.93
2017-10-13T04:25:43.493Z,8.91
2017-10-13T04:28:11.051Z,8.92
2017-10-13T04:30:38.637Z,8.90
2017-10-13T04:33:06.256Z,8.86
2017-10-13T04:35:33.819Z,8.80
2017-10-13T04:38:01.392Z,8.73
2017-10-13T04:40:29.089Z,8.71
2017-10-13T04:42:56.686Z,8.69
2017-10-13T04:45:24.350Z,8.68
2017-10-13T04:47:51.946Z,8.67
2017-10-13T04:50:20.947Z,8.65
2017-10-13T04:52:48.513Z,8.63
2017-10-13T04:55:16.101Z,8.63
2017-10-13T04:57:43.702Z,8.62
2017-10-13T05:00:11.870Z,8.59
2017-10-13T05:02:39.442Z,8.58
2017-10-13T05:05:07.026Z,8.58
2017-10-13T05:07:34.671Z,8.59
2017-10-13T05:10:02.252Z,8.61
2017-10-13T05:12:29.879Z,8.59
2017-10-13T05:14:57.466Z,8.56
2017-10-13T05:17:25.038Z,8.56
2017-10-13T05:19:52.732Z,8.53
2017-10-13T05:22:20.283Z,8.52
2017-10-13T05:24:47.860Z,8.50
2017-10-13T05:27:16.418Z,8.50
2017-10-13T05:29:43.986Z,8.48
2017-10-13T05:32:11.588Z,8.46
2017-10-13T05:34:39.574Z,8.45
2017-10-13T05:37:07.474Z,8.43
2017-10-13T05:39:35.129Z,8.43
2017-10-13T05:42:02.698Z,8.42
2017-10-13T05:44:30.314Z,8.42
2017-10-13T05:46:59.322Z,8.41
2017-10-13T05:49:27.463Z,8.41
2017-10-13T05:51:55.033Z,8.35
2017-10-13T05:54:22.930Z,8.33
2017-10-13T05:56:50.502Z,8.32
2017-10-13T05:59:19.770Z,8.27
2017-10-13T06:01:47.586Z,8.22
2017-10-13T06:04:15.144Z,8.23
2017-10-13T06:06:42.851Z,8.23
2017-10-13T06:09:10.393Z,8.18
2017-10-13T06:11:37.995Z,8.20
2017-10-13T06:14:05.572Z,8.21
2017-10-13T06:16:33.171Z,8.25
2017-10-13T06:19:00.755Z,8.29
2017-10-13T06:21:28.350Z,8.33
2017-10-13T06:23:55.957Z,8.37
2017-10-13T06:26:23.538Z,8.37
2017-10-13T06:28:51.111Z,8.39
2017-10-13T06:31:18.705Z,8.39
2017-10-13T06:33:46.306Z,8.42
2017-10-13T06:36:13.913Z,8.46
2017-10-13T06:38:41.514Z,8.52
2017-10-13T06:41:09.749Z,8.58
2017-10-13T06:43:37.355Z,8.63
2017-10-13T06:46:05.097Z,8.68
2017-10-13T06:48:32.684Z,8.71
2017-10-13T06:51:00.241Z,8.78
2017-10-13T06:53:27.848Z,8.84
2017-10-13T06:55:55.752Z,8.87
2017-10-13T06:58:23.326Z,8.91
2017-10-13T07:00:50.908Z,8.97
2017-10-13T07:03:18.478Z,9.05
2017-10-13T07:05:46.444Z,9.17
2017-10-13T07:08:14.038Z,9.26
2017-10-13T07:10:41.640Z,9.36
2017-10-13T07:13:09.211Z,9.47
2017-10-13T07:15:36.787Z,9.58
2017-10-13T07:18:04.400Z,9.70
2017-10-13T07:20:31.960Z,9.83
2017-10-13T07:23:00.111Z,9.93
2017-10-13T07:25:27.695Z,10.07
2017-10-13T07:27:55.272Z,10.17
2017-10-13T07:30:22.873Z,10.27
2017-10-13T07:32:50.450Z,10.40
2017-10-13T07:35:18.220Z,10.47
2017-10-13T07:37:45.793Z,10.55
2017-10-13T07:40:13.715Z,10.63
2017-10-13T07:42:41.330Z,10.70
2017-10-13T07:45:08.909Z,10.77
2017-10-13T07:47:36.485Z,10.86
2017-10-13T07:50:04.037Z,10.98
2017-10-13T07:52:31.662Z,11.13
2017-10-13T07:54:59.220Z,11.21
2017-10-13T07:57:26.802Z,11.29
2017-10-13T07:59:54.402Z,11.43
2017-10-13T08:02:21.984Z,11.53
2017-10-13T08:04:49.597Z,11.65
2017-10-13T08:07:17.173Z,11.77
2017-10-13T08:09:44.823Z,11.89
2017-10-13T08:12:12.415Z,12.01
2017-10-13T08:14:40.971Z,12.14
2017-10-13T08:17:09.002Z,12.26
2017-10-13T08:19:36.563Z,12.45
2017-10-13T08:22:04.520Z,12.59
2017-10-13T08:24:32.094Z,12.73
2017-10-13T08:26:59.690Z,12.89
2017-10-13T08:29:27.302Z,13.00
2017-10-13T08:31:54.893Z,13.09
2017-10-13T08:34:22.823Z,13.19
2017-10-13T08:36:50.393Z,13.28
2017-10-13T08:39:17.960Z,13.41
2017-10-13T08:41:45.545Z,13.54
2017-10-13T08:44:13.883Z,13.69
2017-10-13T08:46:41.466Z,13.75
2017-10-13T08:49:09.151Z,13.81
2017-10-13T08:51:36.732Z,13.97
2017-10-13T08:54:04.314Z,14.10
2017-10-13T08:56:31.910Z,14.15
2017-10-13T08:58:59.528Z,14.22
2017-10-13T09:01:27.086Z,14.35
2017-10-13T09:03:54.647Z,14.45
2017-10-13T09:06:22.212Z,14.54
2017-10-13T09:11:17.421Z,14.73
2017-10-13T09:13:45.013Z,14.81
2017-10-13T09:16:12.629Z,14.86
2017-10-13T09:18:40.194Z,14.93
2017-10-13T09:21:07.821Z,14.97
2017-10-13T09:23:35.588Z,14.99
2017-10-13T09:26:03.137Z,15.07
2017-10-13T09:28:30.714Z,15.19
2017-10-13T09:30:58.276Z,15.35
2017-10-13T09:33:25.952Z,15.46
2017-10-13T09:35:53.537Z,15.51
2017-10-13T09:38:22.082Z,15.50
2017-10-13T09:40:49.747Z,15.51
2017-10-13T09:43:17.289Z,15.56
2017-10-13T09:45:44.871Z,15.68
2017-10-13T09:48:12.445Z,15.81
2017-10-13T09:50:40.038Z,15.89
2017-10-13T09:53:07.597Z,16.02
2017-10-13T09:55:35.168Z,16.10
2017-10-13T09:58:02.833Z,16.13
2017-10-13T10:00:30.436Z,16.20
2017-10-13T10:02:58.028Z,16.31
2017-10-13T10:05:25.699Z,16.40
2017-10-13T10:07:53.299Z,16.50
2017-10-13T10:10:20.889Z,16.53
2017-10-13T10:12:48.467Z,16.59
2017-10-13T10:15:16.066Z,16.63
2017-10-13T10:17:43.658Z,16.69
2017-10-13T10:20:11.599Z,16.81
2017-10-13T10:22:39.160Z,16.99
2017-10-13T10:25:06.721Z,17.06
2017-10-13T10:27:34.480Z,17.09
2017-10-13T10:30:02.062Z,17.05
2017-10-13T10:32:29.718Z,17.08
2017-10-13T10:34:57.333Z,17.10
2017-10-13T10:37:25.234Z,17.06
2017-10-13T10:39:52.795Z,16.98
2017-10-13T10:42:20.374Z,17.04
2017-10-13T10:44:47.977Z,17.15
2017-10-13T10:47:15.544Z,17.35
2017-10-13T10:49:44.406Z,17.45
2017-10-13T10:52:11.967Z,17.56
2017-10-13T10:54:39.813Z,17.69
2017-10-13T10:57:07.404Z,17.70
2017-10-13T10:59:34.988Z,17.69
2017-10-13T11:02:02.600Z,17.75
2017-10-13T11:04:30.149Z,17.74
2017-10-13T11:06:57.745Z,17.72
2017-10-13T11:09:25.293Z,17.70
2017-10-13T11:11:53.201Z,17.76
2017-10-13T11:14:20.800Z,17.83
2017-10-13T11:16:48.490Z,17.92
2017-10-13T11:19:16.343Z,18.02
2017-10-13T11:21:43.900Z,18.06
2017-10-13T11:24:11.932Z,18.02
2017-10-13T11:26:39.560Z,18.00
2017-10-13T11:29:07.276Z,17.99
2017-10-13T11:31:34.867Z,18.08
2017-10-13T11:34:02.424Z,18.10
2017-10-13T11:36:30.074Z,18.20
2017-10-13T11:38:57.618Z,18.31
2017-10-13T11:41:25.248Z,18.36
2017-10-13T11:43:52.813Z,18.35
2017-10-13T11:46:20.375Z,18.36
2017-10-13T11:48:47.977Z,18.35
2017-10-13T11:51:15.547Z,18.41
2017-10-13T11:53:43.121Z,18.41
2017-10-13T11:56:10.789Z,18.47
2017-10-13T11:58:38.368Z,18.47
2017-10-13T12:01:06.389Z,18.45
2017-10-13T12:03:34.842Z,18.41
2017-10-13T12:06:02.491Z,18.42
2017-10-13T12:08:30.092Z,18.44
2017-10-13T12:10:57.699Z,18.51
2017-10-13T12:13:25.279Z,18.48
2017-10-13T12:15:52.888Z,18.37
2017-10-13T12:18:20.459Z,18.25
2017-10-13T12:20:48.346Z,18.19
2017-10-13T12:23:15.913Z,18.20
2017-10-13T12:25:43.486Z,18.13
2017-10-13T12:28:11.101Z,18.14
2017-10-13T12:30:38.705Z,18.09
2017-10-13T12:33:06.575Z,18.05
2017-10-13T12:35:34.172Z,18.05
2017-10-13T12:38:01.756Z,18.10
2017-10-13T12:40:29.359Z,18.19
2017-10-13T12:42:56.923Z,18.29
2017-10-13T12:45:24.671Z,18.36
2017-10-13T12:47:52.235Z,18.46
2017-10-13T12:50:19.825Z,18.59
2017-10-13T12:52:47.702Z,18.72
2017-10-13T12:55:15.288Z,18.84
2017-10-13T12:57:42.886Z,18.81
2017-10-13T13:00:10.458Z,18.85
2017-10-13T13:02:38.045Z,18.89
2017-10-13T13:05:05.626Z,18.98
2017-10-13T13:07:33.355Z,19.08
2017-10-13T13:10:00.924Z,19.06
2017-10-13T13:12:30.062Z,19.05
2017-10-13T13:14:58.099Z,18.91
2017-10-13T13:17:25.760Z,18.72
2017-10-13T13:19:53.352Z,18.59
2017-10-13T13:22:20.935Z,18.49
2017-10-13T13:24:48.553Z,18.41
2017-10-13T13:27:16.477Z,18.32
2017-10-13T13:29:44.038Z,18.31
2017-10-13T13:32:11.632Z,18.33
2017-10-13T13:34:39.217Z,18.37
2017-10-13T13:37:06.800Z,18.32
2017-10-13T13:39:34.396Z,18.22
2017-10-13T13:42:02.393Z,18.29
2017-10-13T13:44:29.984Z,18.35
2017-10-13T13:46:57.708Z,18.30
2017-10-13T13:49:25.290Z,18.23
2017-10-13T13:51:52.958Z,18.17
2017-10-13T13:54:20.558Z,18.21
2017-10-13T13:56:48.131Z,18.27
2017-10-13T13:59:15.742Z,18.34
2017-10-13T14:01:44.097Z,18.39
2017-10-13T14:04:11.714Z,18.43
2017-10-13T14:06:39.343Z,18.50
2017-10-13T14:09:06.938Z,18.56
2017-10-13T14:11:34.648Z,18.60
2017-10-13T14:14:02.232Z,18.66
2017-10-13T14:16:29.960Z,18.68
2017-10-13T14:18:57.525Z,18.76
2017-10-13T14:21:25.705Z,18.84
2017-10-13T14:23:53.262Z,18.93
2017-10-13T14:26:20.871Z,18.99
2017-10-13T14:28:48.456Z,19.09
2017-10-13T14:31:16.081Z,19.18
2017-10-13T14:33:45.192Z,19.30
2017-10-13T14:36:14.205Z,19.51
2017-10-13T14:38:41.790Z,19.76
2017-10-13T14:41:09.372Z,19.96
2017-10-13T14:43:37.004Z,20.16
2017-10-13T14:46:04.580Z,20.19
2017-10-13T14:48:32.163Z,20.32
2017-10-13T14:50:59.757Z,20.39
2017-10-13T14:53:27.330Z,20.52
2017-10-13T14:55:54.945Z,20.56
2017-10-13T14:58:22.548Z,20.54
2017-10-13T15:00:50.784Z,20.48
2017-10-13T15:03:20.925Z,20.37
2017-10-13T15:05:49.018Z,20.34
2017-10-13T15:08:17.452Z,20.23
2017-10-13T15:10:46.508Z,20.12
2017-10-13T15:13:14.184Z,20.05
2017-10-13T15:15:41.744Z,19.98
2017-10-13T15:18:09.644Z,19.88
2017-10-13T15:20:37.240Z,19.78
2017-10-13T15:23:05.871Z,19.58
2017-10-13T15:25:39.411Z,19.32
2017-10-13T15:28:12.538Z,19.08
2017-10-13T15:30:45.769Z,18.83
2017-10-13T15:33:20.840Z,18.67
2017-10-13T15:35:54.515Z,18.53
2017-10-13T15:38:28.095Z,18.41
2017-10-13T15:41:01.399Z,18.31
2017-10-13T15:43:34.510Z,18.25
2017-10-13T15:46:09.439Z,18.11
2017-10-13T15:48:37.066Z,18.02
2017-10-13T15:51:11.846Z,17.93
2017-10-13T15:53:39.420Z,17.86
2017-10-13T15:56:07.113Z,17.78
2017-10-13T15:58:34.726Z,17.69
2017-10-13T16:01:02.364Z,17.61
2017-10-13T16:03:30.052Z,17.54
2017-10-13T16:05:58.044Z,17.46
2017-10-13T16:08:25.748Z,17.34
2017-10-13T16:10:53.328Z,17.26
2017-10-13T16:13:21.578Z,17.15
2017-10-13T16:15:49.311Z,17.07
2017-10-13T16:18:17.182Z,17.01
2017-10-13T16:20:45.299Z,16.91
2017-10-13T16:23:13.578Z,16.81
2017-10-13T16:25:41.186Z,16.74
2017-10-13T16:28:08.908Z,16.66
2017-10-13T16:30:36.814Z,16.56
2017-10-13T16:33:04.407Z,16.47
2017-10-13T16:35:32.874Z,16.36
2017-10-13T16:38:00.461Z,16.27
2017-10-13T16:40:28.020Z,16.18
2017-10-13T16:42:56.300Z,16.08
2017-10-13T16:45:23.883Z,15.96
2017-10-13T16:47:51.808Z,15.85
2017-10-13T16:50:19.380Z,15.77
2017-10-13T16:52:47.513Z,15.68
2017-10-13T16:57:41.974Z,15.52
2017-10-13T17:00:10.996Z,15.45
2017-10-13T17:02:38.568Z,15.35
2017-10-13T17:05:06.294Z,15.25
2017-10-13T17:07:33.891Z,15.16
2017-10-13T17:10:01.535Z,15.08
2017-10-13T17:12:29.120Z,15.00
2017-10-13T17:14:56.700Z,14.92
2017-10-13T17:17:26.119Z,14.86
2017-10-13T17:19:53.791Z,14.81
2017-10-13T17:22:21.826Z,14.76
2017-10-13T17:24:49.397Z,14.69
2017-10-13T17:27:18.318Z,14.61
2017-10-13T17:29:45.887Z,14.52
2017-10-13T17:32:13.830Z,14.43
2017-10-13T17:34:41.553Z,14.35
2017-10-13T17:37:11.151Z,14.28
2017-10-13T17:39:38.807Z,14.21
2017-10-13T17:42:08.730Z,14.12
2017-10-13T17:44:37.395Z,14.04
2017-10-13T17:47:09.164Z,13.98
2017-10-13T17:49:36.802Z,13.93
2017-10-13T17:52:05.634Z,13.89
2017-10-13T17:54:33.457Z,13.85
2017-10-13T17:57:02.500Z,13.79
2017-10-13T17:59:30.896Z,13.76
2017-10-13T18:01:58.640Z,13.72
2017-10-13T18:04:26.554Z,13.68
2017-10-13T18:06:54.598Z,13.61
2017-10-13T18:09:22.230Z,13.56
2017-10-13T18:11:50.675Z,13.53
2017-10-13T18:14:18.438Z,13.48
2017-10-13T18:16:46.615Z,13.42
2017-10-13T18:19:14.387Z,13.38
2017-10-13T18:21:42.150Z,13.33
2017-10-13T18:24:09.976Z,13.27
2017-10-13T18:26:37.830Z,13.25
2017-10-13T18:29:06.413Z,13.21
2017-10-13T18:31:34.334Z,13.17
2017-10-13T18:34:02.175Z,13.12
2017-10-13T18:36:30.049Z,13.04
2017-10-13T18:38:58.037Z,12.92
2017-10-13T18:41:26.182Z,12.79
2017-10-13T18:43:54.961Z,12.67
2017-10-13T18:46:22.846Z,12.66
2017-10-13T18:48:50.623Z,12.64
2017-10-13T18:51:18.388Z,12.61
2017-10-13T18:53:47.294Z,12.59
2017-10-13T18:56:15.694Z,12.57
2017-10-13T18:58:55.310Z,12.56
2017-10-13T19:01:23.277Z,12.53
2017-10-13T19:03:52.658Z,12.51
2017-10-13T19:06:20.997Z,12.48
2017-10-13T19:08:49.616Z,12.45
2017-10-13T19:11:17.824Z,12.42
2017-10-13T19:13:46.710Z,12.34
2017-10-13T19:16:14.997Z,12.28
2017-10-13T19:18:43.982Z,12.26
2017-10-13T19:21:11.832Z,12.25
2017-10-13T19:23:42.741Z,12.23
2017-10-13T19:26:10.759Z,12.21
2017-10-13T19:28:38.624Z,12.17
2017-10-13T19:31:07.416Z,12.13
2017-10-13T19:33:36.255Z,12.09
2017-10-13T19:36:04.489Z,12.06
2017-10-13T19:51:33.671Z,11.88
2017-10-13T19:54:02.049Z,11.79
2017-10-13T19:56:30.950Z,11.65
2017-10-13T19:58:59.934Z,11.61
2017-10-13T20:01:28.414Z,11.58
2017-10-13T20:03:56.365Z,11.54
2017-10-13T20:06:24.349Z,11.51
2017-10-13T20:08:52.839Z,11.47
2017-10-13T20:11:21.705Z,11.44
2017-10-13T20:13:50.843Z,11.40
2017-10-13T20:16:19.408Z,11.36
2017-10-13T20:18:48.195Z,11.31
2017-10-13T20:21:16.147Z,11.28
2017-10-13T20:23:44.016Z,11.25
2017-10-13T20:26:11.872Z,11.25
2017-10-13T20:28:40.954Z,11.27
2017-10-13T20:31:08.798Z,11.27
2017-10-13T20:33:36.666Z,11.26
2017-10-13T20:36:04.390Z,11.24
2017-10-13T20:38:32.987Z,11.22
2017-10-13T20:41:00.827Z,11.19
2017-10-13T20:43:28.591Z,11.18
2017-10-13T20:45:56.841Z,11.14
2017-10-13T20:48:25.229Z,11.09
2017-10-13T20:50:52.983Z,11.05
2017-10-13T20:53:20.614Z,11.03
2017-10-13T20:55:48.254Z,11.00
2017-10-13T20:58:18.119Z,10.94
2017-10-13T21:00:45.737Z,10.85
2017-10-13T21:03:13.387Z,10.78
2017-10-13T21:05:40.994Z,10.77
2017-10-13T21:08:09.356Z,10.74
2017-10-13T21:10:36.946Z,10.72
2017-10-13T21:13:04.545Z,10.68
2017-10-13T21:15:32.177Z,10.62
2017-10-13T21:17:59.793Z,10.59
2017-10-13T21:20:27.412Z,10.55
2017-10-13T21:22:55.042Z,10.46
2017-10-13T21:25:22.830Z,10.41
2017-10-13T21:27:50.834Z,10.39
2017-10-13T21:30:18.404Z,10.38
2017-10-13T21:32:46.046Z,10.37
2017-10-13T21:35:13.646Z,10.37
2017-10-13T21:37:42.537Z,10.36
2017-10-13T21:40:10.501Z,10.34
2017-10-13T21:42:39.460Z,10.28
2017-10-13T21:45:07.922Z,10.28
2017-10-13T21:47:35.511Z,10.27
2017-10-13T21:50:03.899Z,10.25
2017-10-13T21:52:31.529Z,10.23
2017-10-13T21:54:59.114Z,10.20
2017-10-13T21:57:26.722Z,10.18
2017-10-13T21:59:54.306Z,10.14
2017-10-13T22:02:21.957Z,10.12
2017-10-13T22:04:54.992Z,10.10
2017-10-13T22:07:22.992Z,10.09
2017-10-13T22:09:51.358Z,10.09
2017-10-13T22:12:19.253Z,10.09
2017-10-13T22:14:46.858Z,10.06
2017-10-13T22:17:14.668Z,10.02
2017-10-13T22:19:42.277Z,9.99
2017-10-13T22:22:10.318Z,9.98
2017-10-13T22:24:37.881Z,9.98
2017-10-13T22:27:05.487Z,9.99
2017-10-13T22:29:33.082Z,9.99
2017-10-13T22:32:00.692Z,9.98
2017-10-13T22:34:28.260Z,9.95
2017-10-13T22:36:56.711Z,9.94
2017-10-13T22:39:25.750Z,9.92
2017-10-13T22:41:53.309Z,9.90
2017-10-13T22:44:20.879Z,9.84
2017-10-13T22:46:48.793Z,9.78
2017-10-13T22:49:16.384Z,9.73
2017-10-13T22:51:44.279Z,9.67
2017-10-13T22:54:12.177Z,9.63
2017-10-13T22:56:39.767Z,9.63
2017-10-13T22:59:07.365Z,9.63
2017-10-13T23:01:34.985Z,9.61
2017-10-13T23:04:02.587Z,9.57
2017-10-13T23:06:30.150Z,9.52
2017-10-13T23:08:58.147Z,9.50
2017-10-13T23:11:26.221Z,9.47
2017-10-13T23:13:53.816Z,9.44
2017-10-13T23:16:21.421Z,9.41
2017-10-13T23:18:49.354Z,9.37
2017-10-13T23:21:16.951Z,9.36
2017-10-13T23:23:44.611Z,9.38
2017-10-13T23:26:12.210Z,9.40
2017-10-13T23:28:39.775Z,9.40
2017-10-13T23:31:07.981Z,9.40
2017-10-13T23:33:36.245Z,9.39
2017-10-13T23:36:03.849Z,9.38
2017-10-13T23:38:31.444Z,9.35
2017-10-13T23:40:59.412Z,9.36
2017-10-13T23:43:26.988Z,9.35
2017-10-13T23:45:54.530Z,9.34
2017-10-13T23:48:22.202Z,9.32
2017-10-13T23:50:49.779Z,9.31
2017-10-13T23:53:17.355Z,9.28
2017-10-13T23:55:44.946Z,9.23
2017-10-13T23:58:12.548Z,9.18
